sensor_id;sensor_type;location;lat;lon;timestamp;P1;durP1;ratioP1;P2;durP2;ratioP2
11943;SDS011;6031;50.220;10.122;2022-08-02T00:01:42;1.17;;;1.10;;
11943;SDS011;6031;50.220;10.122;2022-08-02T00:04:08;1.27;;;1.23;;
11943;SDS011;6031;50.220;10.122;2022-08-02T00:06:34;0.93;;;0.93;;
11943;SDS011;6031;50.220;10.122;2022-08-02T00:09:00;1.00;;;1.00;;
11943;SDS011;6031;50.220;10.122;2022-08-02T00:11:27;1.50;;;1.40;;
11943;SDS011;6031;50.220;10.122;2022-08-02T00:13:53;1.27;;;1.17;;
11943;SDS011;6031;50.220;10.122;2022-08-02T00:16:18;1.07;;;1.00;;
11943;SDS011;6031;50.220;10.122;2022-08-02T00:18:44;1.20;;;1.20;;
11943;SDS011;6031;50.220;10.122;2022-08-02T00:21:09;1.73;;;0.87;;
11943;SDS011;6031;50.220;10.122;2022-08-02T00:23:35;1.43;;;0.90;;
11943;SDS011;6031;50.220;10.122;2022-08-02T00:26:01;1.30;;;1.30;;
11943;SDS011;6031;50.220;10.122;2022-08-02T00:28:26;1.17;;;1.07;;
11943;SDS011;6031;50.220;10.122;2022-08-02T00:30:52;1.10;;;1.10;;
11943;SDS011;6031;50.220;10.122;2022-08-02T00:33:18;1.03;;;0.70;;
11943;SDS011;6031;50.220;10.122;2022-08-02T00:35:43;1.27;;;1.20;;
11943;SDS011;6031;50.220;10.122;2022-08-02T00:38:12;1.73;;;1.47;;
11943;SDS011;6031;50.220;10.122;2022-08-02T00:40:38;1.20;;;1.10;;
11943;SDS011;6031;50.220;10.122;2022-08-02T00:43:09;2.83;;;1.23;;
11943;SDS011;6031;50.220;10.122;2022-08-02T00:45:36;1.03;;;0.87;;
11943;SDS011;6031;50.220;10.122;2022-08-02T00:48:04;1.60;;;1.23;;
11943;SDS011;6031;50.220;10.122;2022-08-02T00:50:30;1.20;;;1.20;;
11943;SDS011;6031;50.220;10.122;2022-08-02T00:52:57;1.70;;;1.53;;
11943;SDS011;6031;50.220;10.122;2022-08-02T00:55:23;1.10;;;1.10;;
11943;SDS011;6031;50.220;10.122;2022-08-02T00:57:49;1.77;;;1.23;;
11943;SDS011;6031;50.220;10.122;2022-08-02T01:00:15;1.47;;;1.40;;
11943;SDS011;6031;50.220;10.122;2022-08-02T01:02:41;1.60;;;1.50;;
11943;SDS011;6031;50.220;10.122;2022-08-02T01:05:06;1.27;;;1.27;;
11943;SDS011;6031;50.220;10.122;2022-08-02T01:07:32;1.10;;;1.10;;
11943;SDS011;6031;50.220;10.122;2022-08-02T01:09:58;1.30;;;1.30;;
11943;SDS011;6031;50.220;10.122;2022-08-02T01:12:26;1.13;;;1.13;;
11943;SDS011;6031;50.220;10.122;2022-08-02T01:14:55;1.40;;;1.30;;
11943;SDS011;6031;50.220;10.122;2022-08-02T01:23:23;1.50;;;1.43;;
11943;SDS011;6031;50.220;10.122;2022-08-02T01:29:12;1.47;;;1.40;;
11943;SDS011;6031;50.220;10.122;2022-08-02T01:31:53;1.47;;;1.40;;
11943;SDS011;6031;50.220;10.122;2022-08-02T01:34:31;1.20;;;1.20;;
11943;SDS011;6031;50.220;10.122;2022-08-02T01:37:08;1.30;;;1.30;;
11943;SDS011;6031;50.220;10.122;2022-08-02T01:39:42;1.27;;;1.17;;
11943;SDS011;6031;50.220;10.122;2022-08-02T01:42:10;1.23;;;1.23;;
11943;SDS011;6031;50.220;10.122;2022-08-02T01:44:37;1.30;;;1.20;;
11943;SDS011;6031;50.220;10.122;2022-08-02T01:47:06;1.53;;;1.30;;
11943;SDS011;6031;50.220;10.122;2022-08-02T01:49:37;1.20;;;1.17;;
11943;SDS011;6031;50.220;10.122;2022-08-02T01:52:06;1.27;;;1.27;;
11943;SDS011;6031;50.220;10.122;2022-08-02T01:54:46;1.10;;;1.10;;
11943;SDS011;6031;50.220;10.122;2022-08-02T01:57:16;1.30;;;1.30;;
11943;SDS011;6031;50.220;10.122;2022-08-02T01:59:44;1.30;;;1.30;;
11943;SDS011;6031;50.220;10.122;2022-08-02T02:02:12;1.50;;;1.40;;
11943;SDS011;6031;50.220;10.122;2022-08-02T02:04:40;1.40;;;1.30;;
11943;SDS011;6031;50.220;10.122;2022-08-02T02:07:07;1.63;;;1.53;;
11943;SDS011;6031;50.220;10.122;2022-08-02T02:09:36;1.50;;;1.50;;
11943;SDS011;6031;50.220;10.122;2022-08-02T02:12:02;0.93;;;0.93;;
11943;SDS011;6031;50.220;10.122;2022-08-02T02:14:30;1.37;;;1.27;;
11943;SDS011;6031;50.220;10.122;2022-08-02T02:16:58;1.80;;;1.70;;
11943;SDS011;6031;50.220;10.122;2022-08-02T02:19:24;1.40;;;1.40;;
11943;SDS011;6031;50.220;10.122;2022-08-02T02:21:51;1.53;;;1.43;;
11943;SDS011;6031;50.220;10.122;2022-08-02T02:24:17;1.73;;;1.23;;
11943;SDS011;6031;50.220;10.122;2022-08-02T02:26:42;1.50;;;1.40;;
11943;SDS011;6031;50.220;10.122;2022-08-02T02:29:10;1.57;;;1.47;;
11943;SDS011;6031;50.220;10.122;2022-08-02T02:31:38;1.47;;;1.37;;
11943;SDS011;6031;50.220;10.122;2022-08-02T02:34:16;2.53;;;1.70;;
11943;SDS011;6031;50.220;10.122;2022-08-02T02:36:49;1.40;;;1.40;;
11943;SDS011;6031;50.220;10.122;2022-08-02T02:39:17;1.60;;;1.50;;
11943;SDS011;6031;50.220;10.122;2022-08-02T02:41:46;1.50;;;1.40;;
11943;SDS011;6031;50.220;10.122;2022-08-02T02:44:15;1.60;;;1.50;;
11943;SDS011;6031;50.220;10.122;2022-08-02T02:46:43;1.10;;;1.10;;
11943;SDS011;6031;50.220;10.122;2022-08-02T02:49:10;1.00;;;1.00;;
11943;SDS011;6031;50.220;10.122;2022-08-02T02:51:38;1.40;;;1.30;;
11943;SDS011;6031;50.220;10.122;2022-08-02T02:54:06;1.70;;;1.60;;
11943;SDS011;6031;50.220;10.122;2022-08-02T02:56:35;1.10;;;1.10;;
11943;SDS011;6031;50.220;10.122;2022-08-02T02:59:02;1.60;;;1.50;;
11943;SDS011;6031;50.220;10.122;2022-08-02T03:01:29;1.50;;;1.40;;
11943;SDS011;6031;50.220;10.122;2022-08-02T03:03:56;1.50;;;1.40;;
11943;SDS011;6031;50.220;10.122;2022-08-02T03:06:24;1.90;;;1.30;;
11943;SDS011;6031;50.220;10.122;2022-08-02T03:08:49;1.70;;;1.60;;
11943;SDS011;6031;50.220;10.122;2022-08-02T03:11:16;1.53;;;1.43;;
11943;SDS011;6031;50.220;10.122;2022-08-02T03:13:42;2.27;;;1.40;;
11943;SDS011;6031;50.220;10.122;2022-08-02T03:16:08;3.40;;;1.70;;
11943;SDS011;6031;50.220;10.122;2022-08-02T03:18:36;1.50;;;1.40;;
11943;SDS011;6031;50.220;10.122;2022-08-02T03:21:04;2.57;;;1.80;;
11943;SDS011;6031;50.220;10.122;2022-08-02T03:23:31;1.27;;;1.27;;
11943;SDS011;6031;50.220;10.122;2022-08-02T03:25:58;1.47;;;1.37;;
11943;SDS011;6031;50.220;10.122;2022-08-02T03:28:24;1.60;;;1.50;;
11943;SDS011;6031;50.220;10.122;2022-08-02T03:30:50;1.53;;;1.43;;
11943;SDS011;6031;50.220;10.122;2022-08-02T03:33:16;1.60;;;1.50;;
11943;SDS011;6031;50.220;10.122;2022-08-02T03:35:43;1.70;;;1.60;;
11943;SDS011;6031;50.220;10.122;2022-08-02T03:38:11;1.50;;;1.40;;
11943;SDS011;6031;50.220;10.122;2022-08-02T03:40:37;1.37;;;1.20;;
11943;SDS011;6031;50.220;10.122;2022-08-02T03:43:05;1.60;;;1.50;;
11943;SDS011;6031;50.220;10.122;2022-08-02T03:45:32;1.60;;;1.50;;
11943;SDS011;6031;50.220;10.122;2022-08-02T03:47:58;1.60;;;1.40;;
11943;SDS011;6031;50.220;10.122;2022-08-02T03:50:25;1.50;;;1.40;;
11943;SDS011;6031;50.220;10.122;2022-08-02T03:52:51;1.63;;;1.53;;
11943;SDS011;6031;50.220;10.122;2022-08-02T03:55:17;1.83;;;1.73;;
11943;SDS011;6031;50.220;10.122;2022-08-02T03:57:43;3.13;;;1.70;;
11943;SDS011;6031;50.220;10.122;2022-08-02T04:00:09;3.73;;;1.50;;
11943;SDS011;6031;50.220;10.122;2022-08-02T04:02:37;1.50;;;1.40;;
11943;SDS011;6031;50.220;10.122;2022-08-02T04:05:03;1.43;;;1.43;;
11943;SDS011;6031;50.220;10.122;2022-08-02T04:07:29;2.63;;;1.87;;
11943;SDS011;6031;50.220;10.122;2022-08-02T04:09:54;2.67;;;1.73;;
11943;SDS011;6031;50.220;10.122;2022-08-02T04:12:20;2.73;;;1.70;;
11943;SDS011;6031;50.220;10.122;2022-08-02T04:14:45;1.63;;;1.53;;
11943;SDS011;6031;50.220;10.122;2022-08-02T04:17:11;1.23;;;1.20;;
11943;SDS011;6031;50.220;10.122;2022-08-02T04:19:46;4.20;;;1.53;;
11943;SDS011;6031;50.220;10.122;2022-08-02T04:25:05;2.47;;;1.93;;
11943;SDS011;6031;50.220;10.122;2022-08-02T04:27:33;1.93;;;1.87;;
11943;SDS011;6031;50.220;10.122;2022-08-02T04:30:01;1.93;;;1.83;;
11943;SDS011;6031;50.220;10.122;2022-08-02T04:32:29;2.40;;;2.20;;
11943;SDS011;6031;50.220;10.122;2022-08-02T04:34:55;2.00;;;1.90;;
11943;SDS011;6031;50.220;10.122;2022-08-02T04:37:22;4.03;;;2.50;;
11943;SDS011;6031;50.220;10.122;2022-08-02T04:39:47;3.83;;;1.80;;
11943;SDS011;6031;50.220;10.122;2022-08-02T04:42:20;2.00;;;1.80;;
11943;SDS011;6031;50.220;10.122;2022-08-02T04:44:47;2.00;;;1.90;;
11943;SDS011;6031;50.220;10.122;2022-08-02T04:47:13;1.80;;;1.70;;
11943;SDS011;6031;50.220;10.122;2022-08-02T04:49:39;1.87;;;1.77;;
11943;SDS011;6031;50.220;10.122;2022-08-02T04:52:04;2.17;;;1.87;;
11943;SDS011;6031;50.220;10.122;2022-08-02T04:54:30;2.13;;;2.03;;
11943;SDS011;6031;50.220;10.122;2022-08-02T04:56:55;1.87;;;1.77;;
11943;SDS011;6031;50.220;10.122;2022-08-02T04:59:21;3.20;;;2.20;;
11943;SDS011;6031;50.220;10.122;2022-08-02T05:01:47;2.10;;;2.00;;
11943;SDS011;6031;50.220;10.122;2022-08-02T05:04:12;1.70;;;1.60;;
11943;SDS011;6031;50.220;10.122;2022-08-02T05:06:38;2.10;;;1.90;;
11943;SDS011;6031;50.220;10.122;2022-08-02T05:09:03;2.00;;;1.90;;
11943;SDS011;6031;50.220;10.122;2022-08-02T05:11:29;1.90;;;1.80;;
11943;SDS011;6031;50.220;10.122;2022-08-02T05:13:55;2.40;;;1.90;;
11943;SDS011;6031;50.220;10.122;2022-08-02T05:16:20;2.10;;;2.00;;
11943;SDS011;6031;50.220;10.122;2022-08-02T05:18:46;1.83;;;1.73;;
11943;SDS011;6031;50.220;10.122;2022-08-02T05:21:11;3.43;;;1.87;;
11943;SDS011;6031;50.220;10.122;2022-08-02T05:23:37;1.83;;;1.73;;
11943;SDS011;6031;50.220;10.122;2022-08-02T05:26:02;2.37;;;1.97;;
11943;SDS011;6031;50.220;10.122;2022-08-02T05:28:28;1.87;;;1.77;;
11943;SDS011;6031;50.220;10.122;2022-08-02T05:30:53;2.57;;;2.13;;
11943;SDS011;6031;50.220;10.122;2022-08-02T05:33:19;2.17;;;2.03;;
11943;SDS011;6031;50.220;10.122;2022-08-02T05:35:44;7.93;;;2.47;;
11943;SDS011;6031;50.220;10.122;2022-08-02T05:38:10;5.67;;;2.00;;
11943;SDS011;6031;50.220;10.122;2022-08-02T05:40:37;2.73;;;1.90;;
11943;SDS011;6031;50.220;10.122;2022-08-02T05:43:09;2.10;;;2.00;;
11943;SDS011;6031;50.220;10.122;2022-08-02T05:45:38;5.13;;;2.27;;
11943;SDS011;6031;50.220;10.122;2022-08-02T05:48:04;2.07;;;1.87;;
11943;SDS011;6031;50.220;10.122;2022-08-02T05:50:31;2.13;;;2.03;;
11943;SDS011;6031;50.220;10.122;2022-08-02T05:55:41;4.03;;;2.10;;
11943;SDS011;6031;50.220;10.122;2022-08-02T05:58:14;2.30;;;2.20;;
11943;SDS011;6031;50.220;10.122;2022-08-02T06:00:47;1.93;;;1.83;;
11943;SDS011;6031;50.220;10.122;2022-08-02T06:03:23;1.80;;;1.70;;
11943;SDS011;6031;50.220;10.122;2022-08-02T06:05:52;1.93;;;1.83;;
11943;SDS011;6031;50.220;10.122;2022-08-02T06:08:24;1.90;;;1.80;;
11943;SDS011;6031;50.220;10.122;2022-08-02T06:11:01;1.67;;;1.57;;
11943;SDS011;6031;50.220;10.122;2022-08-02T06:13:29;1.50;;;1.40;;
11943;SDS011;6031;50.220;10.122;2022-08-02T06:15:55;3.23;;;1.53;;
11943;SDS011;6031;50.220;10.122;2022-08-02T06:18:24;1.83;;;1.73;;
11943;SDS011;6031;50.220;10.122;2022-08-02T06:20:50;1.10;;;1.10;;
11943;SDS011;6031;50.220;10.122;2022-08-02T06:23:17;1.85;;;1.42;;
11943;SDS011;6031;50.220;10.122;2022-08-02T06:25:47;1.15;;;1.10;;
11943;SDS011;6031;50.220;10.122;2022-08-02T06:28:14;2.55;;;1.20;;
11943;SDS011;6031;50.220;10.122;2022-08-02T06:30:40;1.98;;;1.80;;
11943;SDS011;6031;50.220;10.122;2022-08-02T06:33:08;1.27;;;1.17;;
11943;SDS011;6031;50.220;10.122;2022-08-02T06:35:36;2.60;;;1.55;;
11943;SDS011;6031;50.220;10.122;2022-08-02T06:38:08;1.30;;;1.20;;
11943;SDS011;6031;50.220;10.122;2022-08-02T06:45:50;1.23;;;1.20;;
11943;SDS011;6031;50.220;10.122;2022-08-02T06:48:16;1.55;;;1.45;;
11943;SDS011;6031;50.220;10.122;2022-08-02T06:50:42;1.10;;;1.10;;
11943;SDS011;6031;50.220;10.122;2022-08-02T06:53:08;2.35;;;1.55;;
11943;SDS011;6031;50.220;10.122;2022-08-02T06:55:34;1.50;;;1.40;;
11943;SDS011;6031;50.220;10.122;2022-08-02T06:57:59;2.28;;;1.52;;
11943;SDS011;6031;50.220;10.122;2022-08-02T07:00:26;1.52;;;1.42;;
11943;SDS011;6031;50.220;10.122;2022-08-02T07:02:54;2.05;;;1.23;;
11943;SDS011;6031;50.220;10.122;2022-08-02T07:05:20;2.20;;;2.03;;
11943;SDS011;6031;50.220;10.122;2022-08-02T07:07:45;2.10;;;1.30;;
11943;SDS011;6031;50.220;10.122;2022-08-02T07:10:11;4.25;;;1.42;;
11943;SDS011;6031;50.220;10.122;2022-08-02T07:12:38;1.15;;;1.05;;
11943;SDS011;6031;50.220;10.122;2022-08-02T07:15:04;1.55;;;1.45;;
11943;SDS011;6031;50.220;10.122;2022-08-02T07:17:33;2.83;;;1.10;;
11943;SDS011;6031;50.220;10.122;2022-08-02T07:19:59;1.60;;;1.45;;
11943;SDS011;6031;50.220;10.122;2022-08-02T07:22:25;1.35;;;1.25;;
11943;SDS011;6031;50.220;10.122;2022-08-02T07:24:52;0.77;;;0.77;;
11943;SDS011;6031;50.220;10.122;2022-08-02T07:27:19;0.98;;;0.98;;
11943;SDS011;6031;50.220;10.122;2022-08-02T07:29:45;1.00;;;1.00;;
11943;SDS011;6031;50.220;10.122;2022-08-02T07:32:11;1.10;;;1.10;;
11943;SDS011;6031;50.220;10.122;2022-08-02T07:34:37;1.67;;;1.58;;
11943;SDS011;6031;50.220;10.122;2022-08-02T07:37:02;3.33;;;1.30;;
11943;SDS011;6031;50.220;10.122;2022-08-02T07:39:28;1.25;;;1.20;;
11943;SDS011;6031;50.220;10.122;2022-08-02T07:41:53;1.20;;;1.20;;
11943;SDS011;6031;50.220;10.122;2022-08-02T07:44:19;1.30;;;1.20;;
11943;SDS011;6031;50.220;10.122;2022-08-02T07:46:46;1.20;;;0.80;;
11943;SDS011;6031;50.220;10.122;2022-08-02T07:49:11;0.80;;;0.80;;
11943;SDS011;6031;50.220;10.122;2022-08-02T07:51:42;0.82;;;0.82;;
11943;SDS011;6031;50.220;10.122;2022-08-02T07:54:10;1.95;;;0.75;;
11943;SDS011;6031;50.220;10.122;2022-08-02T07:56:36;1.20;;;1.13;;
11943;SDS011;6031;50.220;10.122;2022-08-02T07:59:02;1.70;;;1.13;;
11943;SDS011;6031;50.220;10.122;2022-08-02T08:01:28;1.38;;;1.10;;
11943;SDS011;6031;50.220;10.122;2022-08-02T08:03:54;0.80;;;0.70;;
11943;SDS011;6031;50.220;10.122;2022-08-02T08:06:20;1.38;;;1.27;;
11943;SDS011;6031;50.220;10.122;2022-08-02T08:08:46;1.48;;;1.38;;
11943;SDS011;6031;50.220;10.122;2022-08-02T08:11:11;2.22;;;1.00;;
11943;SDS011;6031;50.220;10.122;2022-08-02T08:13:37;1.30;;;1.20;;
11943;SDS011;6031;50.220;10.122;2022-08-02T08:16:03;0.90;;;0.90;;
11943;SDS011;6031;50.220;10.122;2022-08-02T08:18:29;0.90;;;0.90;;
11943;SDS011;6031;50.220;10.122;2022-08-02T08:20:54;2.08;;;0.90;;
11943;SDS011;6031;50.220;10.122;2022-08-02T08:23:20;2.75;;;1.20;;
11943;SDS011;6031;50.220;10.122;2022-08-02T08:25:46;2.83;;;1.08;;
11943;SDS011;6031;50.220;10.122;2022-08-02T08:28:12;1.15;;;1.05;;
11943;SDS011;6031;50.220;10.122;2022-08-02T08:30:38;1.00;;;1.00;;
11943;SDS011;6031;50.220;10.122;2022-08-02T08:33:04;0.75;;;0.75;;
11943;SDS011;6031;50.220;10.122;2022-08-02T08:35:30;1.15;;;1.05;;
11943;SDS011;6031;50.220;10.122;2022-08-02T08:37:55;5.88;;;1.00;;
11943;SDS011;6031;50.220;10.122;2022-08-02T08:40:23;0.70;;;0.70;;
11943;SDS011;6031;50.220;10.122;2022-08-02T08:42:49;0.77;;;0.77;;
11943;SDS011;6031;50.220;10.122;2022-08-02T08:45:15;1.65;;;0.75;;
11943;SDS011;6031;50.220;10.122;2022-08-02T08:47:42;3.83;;;0.90;;
11943;SDS011;6031;50.220;10.122;2022-08-02T08:50:13;3.28;;;1.00;;
11943;SDS011;6031;50.220;10.122;2022-08-02T08:52:53;1.27;;;1.25;;
11943;SDS011;6031;50.220;10.122;2022-08-02T08:55:25;3.75;;;1.02;;
11943;SDS011;6031;50.220;10.122;2022-08-02T08:57:52;2.90;;;1.17;;
11943;SDS011;6031;50.220;10.122;2022-08-02T09:00:19;1.00;;;1.00;;
11943;SDS011;6031;50.220;10.122;2022-08-02T09:02:45;1.15;;;1.00;;
11943;SDS011;6031;50.220;10.122;2022-08-02T09:05:13;1.48;;;1.35;;
11943;SDS011;6031;50.220;10.122;2022-08-02T09:07:40;1.75;;;1.35;;
11943;SDS011;6031;50.220;10.122;2022-08-02T09:13:04;3.22;;;1.27;;
11943;SDS011;6031;50.220;10.122;2022-08-02T09:15:37;3.47;;;1.10;;
11943;SDS011;6031;50.220;10.122;2022-08-02T09:18:04;0.75;;;0.75;;
11943;SDS011;6031;50.220;10.122;2022-08-02T09:20:32;0.90;;;0.90;;
11943;SDS011;6031;50.220;10.122;2022-08-02T09:23:05;0.90;;;0.90;;
11943;SDS011;6031;50.220;10.122;2022-08-02T09:25:32;1.05;;;1.05;;
11943;SDS011;6031;50.220;10.122;2022-08-02T09:27:59;0.88;;;0.88;;
11943;SDS011;6031;50.220;10.122;2022-08-02T09:30:27;1.17;;;1.17;;
11943;SDS011;6031;50.220;10.122;2022-08-02T09:32:53;0.82;;;0.80;;
11943;SDS011;6031;50.220;10.122;2022-08-02T09:35:31;0.80;;;0.80;;
11943;SDS011;6031;50.220;10.122;2022-08-02T09:38:07;0.68;;;0.68;;
11943;SDS011;6031;50.220;10.122;2022-08-02T09:40:34;1.13;;;1.10;;
11943;SDS011;6031;50.220;10.122;2022-08-02T09:43:01;1.65;;;0.70;;
11943;SDS011;6031;50.220;10.122;2022-08-02T09:45:30;1.25;;;0.93;;
11943;SDS011;6031;50.220;10.122;2022-08-02T09:48:08;0.98;;;0.98;;
11943;SDS011;6031;50.220;10.122;2022-08-02T09:50:38;1.35;;;1.10;;
11943;SDS011;6031;50.220;10.122;2022-08-02T09:53:05;3.42;;;1.00;;
11943;SDS011;6031;50.220;10.122;2022-08-02T09:55:36;2.80;;;0.90;;
11943;SDS011;6031;50.220;10.122;2022-08-02T09:58:20;1.42;;;1.02;;
11943;SDS011;6031;50.220;10.122;2022-08-02T10:00:53;0.95;;;0.95;;
11943;SDS011;6031;50.220;10.122;2022-08-02T10:03:19;1.20;;;1.10;;
11943;SDS011;6031;50.220;10.122;2022-08-02T10:05:48;0.80;;;0.80;;
11943;SDS011;6031;50.220;10.122;2022-08-02T10:08:14;0.77;;;0.77;;
11943;SDS011;6031;50.220;10.122;2022-08-02T10:10:40;2.28;;;0.80;;
11943;SDS011;6031;50.220;10.122;2022-08-02T10:13:07;0.80;;;0.80;;
11943;SDS011;6031;50.220;10.122;2022-08-02T10:15:33;0.93;;;0.82;;
11943;SDS011;6031;50.220;10.122;2022-08-02T10:18:00;0.98;;;0.98;;
11943;SDS011;6031;50.220;10.122;2022-08-02T10:20:25;0.70;;;0.70;;
11943;SDS011;6031;50.220;10.122;2022-08-02T10:22:53;1.05;;;1.02;;
11943;SDS011;6031;50.220;10.122;2022-08-02T10:25:21;1.42;;;0.85;;
11943;SDS011;6031;50.220;10.122;2022-08-02T10:27:47;0.60;;;0.60;;
11943;SDS011;6031;50.220;10.122;2022-08-02T10:30:14;1.00;;;0.90;;
11943;SDS011;6031;50.220;10.122;2022-08-02T10:32:42;1.20;;;1.10;;
11943;SDS011;6031;50.220;10.122;2022-08-02T10:35:11;1.17;;;1.17;;
11943;SDS011;6031;50.220;10.122;2022-08-02T10:37:39;1.27;;;0.90;;
11943;SDS011;6031;50.220;10.122;2022-08-02T10:40:08;0.90;;;0.90;;
11943;SDS011;6031;50.220;10.122;2022-08-02T10:42:50;0.90;;;0.90;;
11943;SDS011;6031;50.220;10.122;2022-08-02T10:45:18;1.58;;;0.90;;
11943;SDS011;6031;50.220;10.122;2022-08-02T10:48:18;0.98;;;0.82;;
11943;SDS011;6031;50.220;10.122;2022-08-02T10:53:21;1.90;;;1.15;;
11943;SDS011;6031;50.220;10.122;2022-08-02T10:55:48;2.55;;;0.90;;
11943;SDS011;6031;50.220;10.122;2022-08-02T10:58:15;1.38;;;1.10;;
11943;SDS011;6031;50.220;10.122;2022-08-02T11:00:43;1.92;;;0.80;;
11943;SDS011;6031;50.220;10.122;2022-08-02T11:03:31;0.60;;;0.60;;
11943;SDS011;6031;50.220;10.122;2022-08-02T11:06:02;0.57;;;0.57;;
11943;SDS011;6031;50.220;10.122;2022-08-02T11:08:28;1.85;;;0.60;;
11943;SDS011;6031;50.220;10.122;2022-08-02T11:10:57;1.27;;;1.08;;
11943;SDS011;6031;50.220;10.122;2022-08-02T11:13:24;0.85;;;0.85;;
11943;SDS011;6031;50.220;10.122;2022-08-02T11:15:58;0.90;;;0.85;;
11943;SDS011;6031;50.220;10.122;2022-08-02T11:19:10;3.85;;;1.30;;
11943;SDS011;6031;50.220;10.122;2022-08-02T11:21:23;0.93;;;0.93;;
11943;SDS011;6031;50.220;10.122;2022-08-02T11:23:51;1.38;;;1.13;;
11943;SDS011;6031;50.220;10.122;2022-08-02T11:28:54;1.15;;;0.68;;
11943;SDS011;6031;50.220;10.122;2022-08-02T11:31:20;2.03;;;0.90;;
11943;SDS011;6031;50.220;10.122;2022-08-02T11:33:49;1.00;;;0.80;;
11943;SDS011;6031;50.220;10.122;2022-08-02T11:36:16;2.17;;;0.90;;
11943;SDS011;6031;50.220;10.122;2022-08-02T11:38:42;1.70;;;0.90;;
11943;SDS011;6031;50.220;10.122;2022-08-02T11:41:08;0.85;;;0.80;;
11943;SDS011;6031;50.220;10.122;2022-08-02T11:43:42;0.82;;;0.82;;
11943;SDS011;6031;50.220;10.122;2022-08-02T11:46:12;1.33;;;0.80;;
11943;SDS011;6031;50.220;10.122;2022-08-02T11:48:39;0.90;;;0.90;;
11943;SDS011;6031;50.220;10.122;2022-08-02T11:51:13;0.90;;;0.90;;
11943;SDS011;6031;50.220;10.122;2022-08-02T11:53:52;3.03;;;0.95;;
11943;SDS011;6031;50.220;10.122;2022-08-02T11:56:25;0.70;;;0.70;;
11943;SDS011;6031;50.220;10.122;2022-08-02T11:59:05;1.00;;;1.00;;
11943;SDS011;6031;50.220;10.122;2022-08-02T12:01:36;2.38;;;1.27;;
11943;SDS011;6031;50.220;10.122;2022-08-02T12:04:03;1.27;;;1.17;;
11943;SDS011;6031;50.220;10.122;2022-08-02T12:06:30;0.82;;;0.82;;
11943;SDS011;6031;50.220;10.122;2022-08-02T12:09:03;0.90;;;0.90;;
11943;SDS011;6031;50.220;10.122;2022-08-02T12:11:30;1.85;;;1.48;;
11943;SDS011;6031;50.220;10.122;2022-08-02T12:13:56;0.65;;;0.65;;
11943;SDS011;6031;50.220;10.122;2022-08-02T12:16:22;2.75;;;0.90;;
11943;SDS011;6031;50.220;10.122;2022-08-02T12:19:07;5.40;;;1.00;;
11943;SDS011;6031;50.220;10.122;2022-08-02T12:21:42;1.55;;;0.95;;
11943;SDS011;6031;50.220;10.122;2022-08-02T12:24:09;1.10;;;1.00;;
11943;SDS011;6031;50.220;10.122;2022-08-02T12:26:41;0.77;;;0.77;;
11943;SDS011;6031;50.220;10.122;2022-08-02T12:29:08;0.82;;;0.82;;
11943;SDS011;6031;50.220;10.122;2022-08-02T12:31:44;1.05;;;0.88;;
11943;SDS011;6031;50.220;10.122;2022-08-02T12:34:12;1.40;;;0.75;;
11943;SDS011;6031;50.220;10.122;2022-08-02T12:36:42;1.65;;;1.55;;
11943;SDS011;6031;50.220;10.122;2022-08-02T12:39:39;0.68;;;0.68;;
11943;SDS011;6031;50.220;10.122;2022-08-02T12:42:06;0.77;;;0.77;;
11943;SDS011;6031;50.220;10.122;2022-08-02T12:44:35;1.17;;;1.08;;
11943;SDS011;6031;50.220;10.122;2022-08-02T12:47:06;2.05;;;0.85;;
11943;SDS011;6031;50.220;10.122;2022-08-02T12:49:35;0.82;;;0.82;;
11943;SDS011;6031;50.220;10.122;2022-08-02T12:52:16;1.08;;;1.08;;
11943;SDS011;6031;50.220;10.122;2022-08-02T12:54:47;3.70;;;0.98;;
11943;SDS011;6031;50.220;10.122;2022-08-02T12:57:16;1.00;;;1.00;;
11943;SDS011;6031;50.220;10.122;2022-08-02T12:59:47;0.85;;;0.85;;
11943;SDS011;6031;50.220;10.122;2022-08-02T13:02:15;1.30;;;0.95;;
11943;SDS011;6031;50.220;10.122;2022-08-02T13:04:41;3.33;;;1.20;;
11943;SDS011;6031;50.220;10.122;2022-08-02T13:07:07;1.05;;;0.80;;
11943;SDS011;6031;50.220;10.122;2022-08-02T13:09:36;0.88;;;0.88;;
11943;SDS011;6031;50.220;10.122;2022-08-02T13:12:06;0.80;;;0.80;;
11943;SDS011;6031;50.220;10.122;2022-08-02T13:14:33;0.60;;;0.60;;
11943;SDS011;6031;50.220;10.122;2022-08-02T13:16:59;1.25;;;1.15;;
11943;SDS011;6031;50.220;10.122;2022-08-02T13:19:25;1.00;;;1.00;;
11943;SDS011;6031;50.220;10.122;2022-08-02T13:21:51;1.23;;;1.02;;
11943;SDS011;6031;50.220;10.122;2022-08-02T13:24:17;0.90;;;0.90;;
11943;SDS011;6031;50.220;10.122;2022-08-02T13:26:43;1.20;;;1.05;;
11943;SDS011;6031;50.220;10.122;2022-08-02T13:29:09;0.95;;;0.95;;
11943;SDS011;6031;50.220;10.122;2022-08-02T13:31:38;1.00;;;1.00;;
11943;SDS011;6031;50.220;10.122;2022-08-02T13:34:04;0.88;;;0.88;;
11943;SDS011;6031;50.220;10.122;2022-08-02T13:36:30;3.28;;;1.15;;
11943;SDS011;6031;50.220;10.122;2022-08-02T13:38:57;0.77;;;0.77;;
11943;SDS011;6031;50.220;10.122;2022-08-02T13:41:22;0.90;;;0.75;;
11943;SDS011;6031;50.220;10.122;2022-08-02T13:43:48;0.88;;;0.88;;
11943;SDS011;6031;50.220;10.122;2022-08-02T13:46:14;1.23;;;0.80;;
11943;SDS011;6031;50.220;10.122;2022-08-02T13:48:40;1.08;;;0.98;;
11943;SDS011;6031;50.220;10.122;2022-08-02T13:51:05;0.82;;;0.80;;
11943;SDS011;6031;50.220;10.122;2022-08-02T13:53:35;1.73;;;1.13;;
11943;SDS011;6031;50.220;10.122;2022-08-02T13:56:04;1.05;;;1.05;;
11943;SDS011;6031;50.220;10.122;2022-08-02T13:58:30;0.82;;;0.82;;
11943;SDS011;6031;50.220;10.122;2022-08-02T14:00:56;1.80;;;1.20;;
11943;SDS011;6031;50.220;10.122;2022-08-02T14:03:21;1.65;;;1.35;;
11943;SDS011;6031;50.220;10.122;2022-08-02T14:05:47;2.30;;;1.10;;
11943;SDS011;6031;50.220;10.122;2022-08-02T14:08:13;1.30;;;1.08;;
11943;SDS011;6031;50.220;10.122;2022-08-02T14:10:40;3.72;;;1.35;;
11943;SDS011;6031;50.220;10.122;2022-08-02T14:13:05;0.82;;;0.82;;
11943;SDS011;6031;50.220;10.122;2022-08-02T14:15:31;1.08;;;1.08;;
11943;SDS011;6031;50.220;10.122;2022-08-02T14:17:57;1.33;;;1.00;;
11943;SDS011;6031;50.220;10.122;2022-08-02T14:20:22;1.55;;;1.45;;
11943;SDS011;6031;50.220;10.122;2022-08-02T14:22:48;0.75;;;0.75;;
11943;SDS011;6031;50.220;10.122;2022-08-02T14:25:13;0.80;;;0.80;;
11943;SDS011;6031;50.220;10.122;2022-08-02T14:27:39;1.75;;;1.08;;
11943;SDS011;6031;50.220;10.122;2022-08-02T14:30:05;3.75;;;1.25;;
11943;SDS011;6031;50.220;10.122;2022-08-02T14:32:31;0.98;;;0.98;;
11943;SDS011;6031;50.220;10.122;2022-08-02T14:34:56;1.08;;;1.00;;
11943;SDS011;6031;50.220;10.122;2022-08-02T14:37:22;1.05;;;0.98;;
11943;SDS011;6031;50.220;10.122;2022-08-02T14:39:47;0.82;;;0.82;;
11943;SDS011;6031;50.220;10.122;2022-08-02T14:42:13;1.75;;;0.93;;
11943;SDS011;6031;50.220;10.122;2022-08-02T14:44:38;1.10;;;1.00;;
11943;SDS011;6031;50.220;10.122;2022-08-02T14:47:04;0.95;;;0.95;;
11943;SDS011;6031;50.220;10.122;2022-08-02T14:49:33;2.20;;;0.90;;
11943;SDS011;6031;50.220;10.122;2022-08-02T14:51:59;1.05;;;0.93;;
11943;SDS011;6031;50.220;10.122;2022-08-02T14:54:25;1.00;;;1.00;;
11943;SDS011;6031;50.220;10.122;2022-08-02T14:56:53;1.23;;;1.20;;
11943;SDS011;6031;50.220;10.122;2022-08-02T14:59:19;0.95;;;0.95;;
11943;SDS011;6031;50.220;10.122;2022-08-02T15:01:44;1.15;;;1.02;;
11943;SDS011;6031;50.220;10.122;2022-08-02T15:04:10;2.28;;;1.27;;
11943;SDS011;6031;50.220;10.122;2022-08-02T15:06:35;0.90;;;0.90;;
11943;SDS011;6031;50.220;10.122;2022-08-02T15:09:01;0.95;;;0.95;;
11943;SDS011;6031;50.220;10.122;2022-08-02T15:11:26;1.50;;;1.33;;
11943;SDS011;6031;50.220;10.122;2022-08-02T15:13:52;1.20;;;1.20;;
11943;SDS011;6031;50.220;10.122;2022-08-02T15:16:17;2.88;;;1.02;;
11943;SDS011;6031;50.220;10.122;2022-08-02T15:18:43;1.23;;;1.10;;
11943;SDS011;6031;50.220;10.122;2022-08-02T15:21:09;1.42;;;1.25;;